Time;durP1;ratioP1;P1;durP2;ratioP2;P2;SDS_P1;SDS_P2;PMS_P1;PMS_P2;Temp;Humidity;BMP_temperature;BMP_pressure;BME280_temperature;BME280_humidity;BME280_pressure;Samples;Min_cycle;Max_cycle;Signal;HPM_P1;HPM_P2
2024/02/27 00:01:16;;;;;;;;;;;;;;;11.89;68.98;99745.47;4861560;29;19916;-77
2024/02/27 00:04:08;;;;;;;;;;;;;;;11.85;68.95;99746.50;4859367;29;19939;-77
2024/02/27 00:07:00;;;;;;;;;;;;;;;11.86;69.06;99743.44;4860489;29;20002;-77
2024/02/27 00:09:52;;;;;;;;;;;;;;;11.86;68.94;99732.53;4860977;29;19920;-77
2024/02/27 00:12:44;;;;;;;;;;;;;;;11.83;69.42;99735.97;4858845;29;19916;-76
2024/02/27 00:15:36;;;;;;;;;;;;;;;11.84;69.38;99725.84;4865350;29;20298;-76
2024/02/27 00:18:28;;;;;;;;;;;;;;;11.80;68.76;99714.84;4863653;29;19920;-77
2024/02/27 00:21:20;;;;;;;;;;;;;;;11.83;68.47;99713.38;4866154;29;19916;-76
2024/02/27 00:24:09;;;;;;;;;;;;;;;11.85;69.05;99711.88;4865103;29;19916;-77
2024/02/27 00:27:01;;;;;;;;;;;;;;;11.78;68.70;99710.91;4863107;29;20293;-77
2024/02/27 00:29:53;;;;;;;;;;;;;;;11.71;69.08;99707.94;4866536;29;19920;-77
2024/02/27 00:32:45;;;;;;;;;;;;;;;11.77;69.17;99709.31;4862324;29;19920;-77
2024/02/27 00:35:37;;;;;;;;;;;;;;;11.82;68.94;99712.59;4862314;29;20378;-77
2024/02/27 00:38:26;;;;;;;;;;;;;;;11.74;68.93;99699.09;4865162;29;19916;-77
2024/02/27 00:41:16;;;;;;;;;;;;;;;11.66;68.96;99702.75;4863721;29;19949;-77
2024/02/27 00:44:05;;;;;;;;;;;;;;;11.73;69.68;99694.81;4867137;29;20378;-77
2024/02/27 00:46:57;;;;;;;;;;;;;;;11.78;68.92;99692.66;4865193;29;20383;-78
2024/02/27 00:49:50;;;;;;;;;;;;;;;11.79;69.13;99677.88;4867997;29;19924;-78
2024/02/27 00:52:42;;;;;;;;;;;;;;;11.73;69.61;99675.75;4862044;29;20310;-76
2024/02/27 00:55:34;;;;;;;;;;;;;;;11.72;69.04;99669.50;4867849;29;19916;-76
2024/02/27 00:58:26;;;;;;;;;;;;;;;11.81;69.04;99666.63;4861881;29;19916;-77
2024/02/27 01:01:18;;;;;;;;;;;;;;;11.75;68.55;99657.91;4865225;29;19915;-77
2024/02/27 01:04:09;;;;;;;;;;;;;;;11.76;68.44;99658.72;4849445;29;19920;-77
2024/02/27 01:07:01;;;;;;;;;;;;;;;11.70;68.83;99660.88;4863250;29;19920;-77
2024/02/27 01:09:53;;;;;;;;;;;;;;;11.63;68.73;99671.56;4864744;29;19920;-77
2024/02/27 01:12:43;;;;;;;;;;;;;;;11.74;69.44;99666.44;4861634;29;19916;-77
2024/02/27 01:15:35;;;;;;;;;;;;;;;11.68;68.10;99674.06;4865886;29;19920;-77
2024/02/27 01:18:27;;;;;;;;;;;;;;;11.69;68.57;99664.72;4863505;29;19919;-76
2024/02/27 01:21:19;;;;;;;;;;;;;;;11.64;68.65;99664.97;4861588;29;19924;-77
2024/02/27 01:24:11;;;;;;;;;;;;;;;11.72;68.12;99655.88;4864970;29;19916;-76
2024/02/27 01:27:03;;;;;;;;;;;;;;;11.78;67.95;99662.69;4861925;29;19916;-77
2024/02/27 01:29:55;;;;;;;;;;;;;;;11.76;68.38;99664.16;4861052;29;20383;-76
2024/02/27 01:32:47;;;;;;;;;;;;;;;11.70;68.17;99655.41;4861238;29;20406;-77
2024/02/27 01:35:39;;;;;;;;;;;;;;;11.70;68.72;99666.31;4862194;29;19920;-76
2024/02/27 01:38:31;;;;;;;;;;;;;;;11.68;68.99;99663.16;4865170;29;19915;-76
2024/02/27 01:41:23;;;;;;;;;;;;;;;11.70;69.02;99651.91;4863031;29;19916;-77
2024/02/27 01:44:13;;;;;;;;;;;;;;;11.61;69.36;99654.78;4866584;29;19916;-77
2024/02/27 01:47:05;;;;;;;;;;;;;;;11.66;69.04;99645.56;4864597;29;19916;-76
2024/02/27 01:49:58;;;;;;;;;;;;;;;11.69;68.93;99653.03;4862505;29;19924;-77
2024/02/27 01:52:50;;;;;;;;;;;;;;;11.69;69.02;99642.13;4860717;29;19916;-77
2024/02/27 01:55:43;;;;;;;;;;;;;;;11.61;69.02;99643.09;4863875;29;20226;-77
2024/02/27 01:58:35;;;;;;;;;;;;;;;11.68;68.67;99635.94;4861470;29;19916;-76
2024/02/27 02:01:27;;;;;;;;;;;;;;;11.62;68.73;99648.22;4864210;29;19920;-76
2024/02/27 02:04:19;;;;;;;;;;;;;;;11.62;68.84;99636.53;4863147;29;19939;-77
2024/02/27 02:07:11;;;;;;;;;;;;;;;11.62;68.87;99637.31;4861005;29;19916;-77
2024/02/27 02:10:02;;;;;;;;;;;;;;;11.71;68.66;99640.66;4864340;29;19920;-77
2024/02/27 02:12:52;;;;;;;;;;;;;;;11.70;68.50;99651.91;4854631;29;19924;-77
2024/02/27 02:15:44;;;;;;;;;;;;;;;11.70;67.48;99647.25;4844593;29;20412;-76
2024/02/27 02:18:36;;;;;;;;;;;;;;;11.70;67.82;99639.06;4845206;29;19916;-77
2024/02/27 02:21:28;;;;;;;;;;;;;;;11.66;69.26;99643.63;4843208;29;19916;-76
2024/02/27 02:24:20;;;;;;;;;;;;;;;11.73;68.09;99637.63;4846314;29;19917;-77
2024/02/27 02:27:14;;;;;;;;;;;;;;;11.72;68.20;99636.81;4844329;29;19916;-76
2024/02/27 02:30:06;;;;;;;;;;;;;;;11.73;67.81;99638.44;4842075;29;20390;-76
2024/02/27 02:32:58;;;;;;;;;;;;;;;11.79;67.66;99634.28;4848091;29;19920;-77
2024/02/27 02:35:50;;;;;;;;;;;;;;;11.72;67.85;99620.47;4843462;29;19916;-77
2024/02/27 02:38:42;;;;;;;;;;;;;;;11.77;68.07;99612.06;4847210;29;19917;-77
2024/02/27 02:41:34;;;;;;;;;;;;;;;11.72;68.03;99598.69;4844704;29;19920;-76
2024/02/27 02:44:26;;;;;;;;;;;;;;;11.74;68.29;99601.84;4842702;29;19916;-77
2024/02/27 02:47:18;;;;;;;;;;;;;;;11.68;67.81;99597.81;4845518;29;19917;-77
2024/02/27 02:50:07;;;;;;;;;;;;;;;11.70;67.63;99600.94;4843655;29;19928;-77
2024/02/27 02:52:59;;;;;;;;;;;;;;;11.70;67.82;99611.84;4847217;29;19928;-77
2024/02/27 02:55:51;;;;;;;;;;;;;;;11.69;67.67;99615.69;4845023;29;20292;-76
2024/02/27 02:58:43;;;;;;;;;;;;;;;11.69;68.03;99621.16;4842634;29;19924;-77
2024/02/27 03:01:35;;;;;;;;;;;;;;;11.80;67.95;99621.47;4844241;29;19920;-76
2024/02/27 03:04:27;;;;;;;;;;;;;;;11.83;67.05;99620.78;4844296;29;19916;-76
2024/02/27 03:07:17;;;;;;;;;;;;;;;11.95;67.66;99618.75;4841959;29;20315;-77
2024/02/27 03:10:08;;;;;;;;;;;;;;;11.93;66.94;99625.72;4845612;29;19920;-77
2024/02/27 03:13:01;;;;;;;;;;;;;;;11.95;66.62;99628.84;4843716;29;20294;-76
2024/02/27 03:15:53;;;;;;;;;;;;;;;11.96;66.72;99625.00;4841463;29;19916;-76
2024/02/27 03:18:45;;;;;;;;;;;;;;;12.03;66.04;99627.91;4846669;29;20314;-76
2024/02/27 03:21:37;;;;;;;;;;;;;;;11.93;65.91;99633.88;4842639;29;20318;-76
2024/02/27 03:24:29;;;;;;;;;;;;;;;11.90;66.69;99635.34;4846806;29;19924;-76
2024/02/27 03:27:21;;;;;;;;;;;;;;;12.03;66.72;99636.09;4843637;29;19916;-77
2024/02/27 03:30:13;;;;;;;;;;;;;;;12.26;66.46;99628.06;4841695;29;19920;-76
2024/02/27 03:33:05;;;;;;;;;;;;;;;12.23;66.70;99623.34;4845393;29;19920;-77
2024/02/27 03:35:57;;;;;;;;;;;;;;;12.28;66.40;99628.50;4843297;29;20375;-77
2024/02/27 03:38:49;;;;;;;;;;;;;;;12.24;66.79;99624.91;4840908;29;19920;-77
2024/02/27 03:41:41;;;;;;;;;;;;;;;12.24;66.16;99635.81;4843522;29;19916;-76
2024/02/27 03:44:33;;;;;;;;;;;;;;;12.32;65.86;99629.38;4842488;29;19916;-76
2024/02/27 03:47:25;;;;;;;;;;;;;;;12.31;66.24;99638.69;4845578;29;19924;-76
2024/02/27 03:50:17;;;;;;;;;;;;;;;12.18;65.96;99629.03;4846159;29;19920;-76
2024/02/27 03:53:09;;;;;;;;;;;;;;;12.22;67.19;99616.28;4841713;29;19924;-77
2024/02/27 03:56:01;;;;;;;;;;;;;;;12.30;67.57;99628.94;4846502;29;19921;-78
2024/02/27 03:58:50;;;;;;;;;;;;;;;12.33;66.66;99628.25;4842736;29;20318;-77
2024/02/27 04:01:42;;;;;;;;;;;;;;;12.37;66.26;99629.13;4840848;29;20318;-78
2024/02/27 04:04:35;;;;;;;;;;;;;;;12.29;65.92;99636.31;4844444;29;19916;-78
2024/02/27 04:07:27;;;;;;;;;;;;;;;12.32;65.68;99632.13;4840841;29;19920;-77
2024/02/27 04:10:19;;;;;;;;;;;;;;;12.18;66.25;99629.03;4845464;29;20291;-78
2024/02/27 04:13:11;;;;;;;;;;;;;;;12.30;66.89;99627.00;4843541;29;19924;-78
2024/02/27 04:16:00;;;;;;;;;;;;;;;12.21;66.49;99620.16;4840233;29;19916;-78
2024/02/27 04:18:52;;;;;;;;;;;;;;;12.26;66.06;99612.50;4843914;29;20294;-78
2024/02/27 04:21:44;;;;;;;;;;;;;;;12.42;66.10;99599.66;4835374;29;19916;-77
2024/02/27 04:24:36;;;;;;;;;;;;;;;12.37;65.14;99596.41;4840572;29;19920;-77
2024/02/27 04:27:28;;;;;;;;;;;;;;;12.44;66.01;99596.56;4839412;29;19917;-77
2024/02/27 04:30:21;;;;;;;;;;;;;;;12.46;65.16;99596.19;4846468;29;20375;-76
2024/02/27 04:33:13;;;;;;;;;;;;;;;12.45;64.61;99589.97;4840240;29;19920;-76
2024/02/27 04:36:05;;;;;;;;;;;;;;;12.48;64.68;99591.19;4843382;29;19916;-77
2024/02/27 04:38:57;;;;;;;;;;;;;;;12.41;64.68;99600.00;4840666;29;19920;-77
2024/02/27 04:41:49;;;;;;;;;;;;;;;12.58;63.76;99587.91;4842578;29;19916;-77
2024/02/27 04:44:42;;;;;;;;;;;;;;;12.53;63.77;99599.91;4839993;29;19932;-78
2024/02/27 04:47:32;;;;;;;;;;;;;;;12.63;63.86;99604.00;4840453;29;19920;-77
2024/02/27 04:50:24;;;;;;;;;;;;;;;12.49;63.93;99607.22;4843916;29;19920;-77
2024/02/27 04:53:16;;;;;;;;;;;;;;;12.47;63.47;99614.16;4846264;29;19916;-78
2024/02/27 04:56:08;;;;;;;;;;;;;;;12.54;63.69;99620.56;4845400;29;20306;-77
2024/02/27 04:59:00;;;;;;;;;;;;;;;12.55;63.92;99605.78;4842708;29;19921;-77
2024/02/27 05:01:50;;;;;;;;;;;;;;;12.52;63.50;99611.16;4845960;29;19916;-77
2024/02/27 05:04:42;;;;;;;;;;;;;;;12.60;63.57;99605.50;4847955;29;20387;-77
2024/02/27 05:07:34;;;;;;;;;;;;;;;12.60;63.65;99596.50;4841502;29;19916;-77
2024/02/27 05:10:26;;;;;;;;;;;;;;;12.56;64.17;99610.09;4843708;29;19921;-77
2024/02/27 05:13:18;;;;;;;;;;;;;;;12.49;64.78;99609.94;4847301;29;19916;-77
2024/02/27 05:16:13;;;;;;;;;;;;;;;12.45;64.54;99614.50;4838241;29;19920;-77
2024/02/27 05:19:05;;;;;;;;;;;;;;;12.39;65.33;99610.47;4834880;29;19920;-77
2024/02/27 05:21:57;;;;;;;;;;;;;;;12.41;65.14;99613.63;4844600;29;19916;-77
2024/02/27 05:24:49;;;;;;;;;;;;;;;12.48;65.39;99613.00;4843753;29;20388;-77
2024/02/27 05:27:41;;;;;;;;;;;;;;;12.44;65.57;99607.50;4846855;29;19916;-76
2024/02/27 05:30:33;;;;;;;;;;;;;;;12.35;66.09;99598.69;4844050;29;19924;-78
2024/02/27 05:33:25;;;;;;;;;;;;;;;12.51;66.39;99613.09;4837647;29;19916;-77
2024/02/27 05:36:17;;;;;;;;;;;;;;;12.38;66.77;99612.41;4846240;29;19917;-77
2024/02/27 05:39:09;;;;;;;;;;;;;;;12.47;66.48;99612.22;4844199;29;19921;-78
2024/02/27 05:42:00;;;;;;;;;;;;;;;12.44;66.83;99602.78;4844774;29;19920;-76
2024/02/27 05:44:50;;;;;;;;;;;;;;;12.44;66.12;99621.88;4836270;29;19917;-76
2024/02/27 05:47:39;;;;;;;;;;;;;;;12.35;65.90;99623.22;4834696;29;19920;-76
2024/02/27 05:50:31;;;;;;;;;;;;;;;12.35;66.59;99607.66;4842568;29;19921;-77
2024/02/27 05:53:23;;;;;;;;;;;;;;;12.41;66.15;99614.41;4845296;29;19917;-76
2024/02/27 05:56:13;;;;;;;;;;;;;;;12.34;65.97;99616.97;4843038;29;20311;-76
2024/02/27 05:59:05;;;;;;;;;;;;;;;12.33;65.67;99618.13;4846233;29;19916;-76
2024/02/27 06:01:57;;;;;;;;;;;;;;;12.43;65.80;99614.88;4844162;29;19917;-76
2024/02/27 06:04:49;;;;;;;;;;;;;;;12.51;65.74;99613.09;4842050;29;19920;-76
2024/02/27 06:07:41;;;;;;;;;;;;;;;12.51;66.36;99623.19;4842329;29;19916;-76
2024/02/27 06:10:34;;;;;;;;;;;;;;;12.36;66.80;99631.06;4843407;29;19920;-76
2024/02/27 06:13:26;;;;;;;;;;;;;;;12.44;66.99;99635.50;4842054;29;19925;-75
2024/02/27 06:16:18;;;;;;;;;;;;;;;12.48;67.77;99637.56;4842295;29;19916;-75
2024/02/27 06:19:10;;;;;;;;;;;;;;;12.72;67.30;99656.41;4841964;29;19920;-77
2024/02/27 06:22:18;;;;;;;;;;;;;;;12.75;67.42;99650.25;4842780;29;19934;-77
2024/02/27 06:25:10;;;;;;;;;;;;;;;12.70;67.25;99659.50;4839276;29;19924;-77
2024/02/27 06:28:02;;;;;;;;;;;;;;;12.80;66.76;99664.41;4840638;29;19924;-77
2024/02/27 06:30:54;;;;;;;;;;;;;;;12.78;67.14;99671.38;4844171;29;19927;-76
2024/02/27 06:33:46;;;;;;;;;;;;;;;12.36;68.28;99671.16;4841690;29;19920;-76
2024/02/27 06:36:39;;;;;;;;;;;;;;;12.29;68.32;99673.72;4845580;29;19916;-76
2024/02/27 06:39:31;;;;;;;;;;;;;;;12.22;68.76;99679.78;4843263;29;19924;-75
2024/02/27 06:42:23;;;;;;;;;;;;;;;12.35;68.16;99696.81;4834598;29;19916;-76
2024/02/27 06:45:15;;;;;;;;;;;;;;;12.35;68.52;99713.19;4839875;29;19917;-77
2024/02/27 06:48:07;;;;;;;;;;;;;;;12.18;69.34;99719.78;4841220;29;19920;-77
2024/02/27 06:50:59;;;;;;;;;;;;;;;12.21;69.37;99729.19;4840726;29;19921;-77
2024/02/27 06:53:51;;;;;;;;;;;;;;;12.26;69.81;99739.81;4840184;29;19924;-76
2024/02/27 06:56:43;;;;;;;;;;;;;;;12.11;71.79;99743.31;4838335;29;19917;-77
2024/02/27 06:59:35;;;;;;;;;;;;;;;11.97;72.58;99746.47;4843744;29;19917;-76
2024/02/27 07:02:27;;;;;;;;;;;;;;;11.98;72.89;99748.06;4839496;29;19920;-76
2024/02/27 07:05:19;;;;;;;;;;;;;;;11.97;72.56;99762.81;4840151;29;19920;-76
2024/02/27 07:08:14;;;;;;;;;;;;;;;12.02;72.35;99759.03;4841601;29;19920;-76
2024/02/27 07:11:06;;;;;;;;;;;;;;;11.97;72.36;99771.78;4841525;29;19924;-76
2024/02/27 07:13:58;;;;;;;;;;;;;;;12.15;72.33;99764.06;4844407;29;19920;-76
2024/02/27 07:16:49;;;;;;;;;;;;;;;12.06;72.08;99765.38;4835733;29;19916;-79
2024/02/27 07:19:41;;;;;;;;;;;;;;;12.17;71.82;99756.34;4835284;29;19921;-78
2024/02/27 07:22:33;;;;;;;;;;;;;;;12.29;71.49;99742.63;4835982;29;19924;-79
2024/02/27 07:25:25;;;;;;;;;;;;;;;12.63;70.07;99748.56;4836656;29;19916;-79
2024/02/27 07:28:17;;;;;;;;;;;;;;;12.75;69.62;99768.34;4845253;29;19920;-78
2024/02/27 07:31:14;;;;;;;;;;;;;;;12.55;69.82;99796.66;4843668;29;20375;-79
2024/02/27 07:34:03;;;;;;;;;;;;;;;13.13;68.84;99813.34;4841243;29;19924;-79
2024/02/27 07:36:53;;;;;;;;;;;;;;;12.67;69.25;99806.72;4841247;29;19916;-79
2024/02/27 07:39:44;;;;;;;;;;;;;;;12.36;70.73;99797.34;4844950;29;20378;-80
2024/02/27 07:42:36;;;;;;;;;;;;;;;12.22;71.68;99810.59;4840695;29;19916;-80
2024/02/27 07:45:26;;;;;;;;;;;;;;;11.95;73.42;99820.38;4844020;29;19920;-79
2024/02/27 07:48:18;;;;;;;;;;;;;;;12.00;73.23;99822.84;4842399;29;19920;-80
2024/02/27 07:51:07;;;;;;;;;;;;;;;12.11;72.42;99817.69;4844717;29;19920;-80
2024/02/27 07:53:59;;;;;;;;;;;;;;;11.89;73.08;99824.47;4842050;29;20583;-79
2024/02/27 07:56:51;;;;;;;;;;;;;;;11.92;73.57;99818.34;4841221;29;19916;-79
2024/02/27 07:59:43;;;;;;;;;;;;;;;11.89;73.89;99816.28;4846287;29;19916;-79
2024/02/27 08:02:36;;;;;;;;;;;;;;;11.91;73.81;99835.81;4839302;29;19916;-79
2024/02/27 08:05:28;;;;;;;;;;;;;;;12.30;73.72;99850.53;4845453;29;19925;-81
2024/02/27 08:08:16;;;;;;;;;;;;;;;13.05;71.57;99845.09;4837596;29;20378;-80
2024/02/27 08:11:08;;;;;;;;;;;;;;;13.36;70.44;99838.81;4842318;29;20322;-81
2024/02/27 08:14:00;;;;;;;;;;;;;;;13.60;68.57;99846.03;4841888;29;19924;-80
2024/02/27 08:16:52;;;;;;;;;;;;;;;13.01;69.31;99854.31;4844728;29;19916;-80
2024/02/27 08:19:44;;;;;;;;;;;;;;;12.66;70.62;99854.22;4841709;29;20382;-81
2024/02/27 08:22:36;;;;;;;;;;;;;;;12.60;72.54;99867.31;4842720;29;19920;-79
2024/02/27 08:25:28;;;;;;;;;;;;;;;12.68;72.65;99869.09;4844477;29;19920;-80
2024/02/27 08:28:20;;;;;;;;;;;;;;;13.36;73.81;99859.91;4841707;29;19924;-78
2024/02/27 08:31:12;;;;;;;;;;;;;;;13.62;71.45;99869.09;4843452;29;19939;-79
2024/02/27 08:34:04;;;;;;;;;;;;;;;13.76;70.65;99874.09;4843109;29;19920;-79
2024/02/27 08:36:56;;;;;;;;;;;;;;;13.83;70.62;99878.91;4843955;29;19916;-78
2024/02/27 08:39:45;;;;;;;;;;;;;;;13.78;70.07;99874.50;4849357;29;19916;-79
2024/02/27 08:42:37;;;;;;;;;;;;;;;13.98;71.47;99887.06;4846257;29;20414;-80
2024/02/27 08:45:29;;;;;;;;;;;;;;;14.21;70.36;99889.91;4847541;29;19916;-79
2024/02/27 08:48:19;;;;;;;;;;;;;;;14.20;70.78;99896.50;4849058;29;19917;-79
2024/02/27 08:51:11;;;;;;;;;;;;;;;14.35;70.27;99900.31;4842236;29;20303;-80
2024/02/27 08:54:03;;;;;;;;;;;;;;;14.67;70.02;99895.53;4851052;29;19920;-80
2024/02/27 08:56:55;;;;;;;;;;;;;;;14.50;67.40;99894.03;4847364;29;19917;-80
2024/02/27 08:59:47;;;;;;;;;;;;;;;14.39;66.77;99896.53;4843352;29;19916;-79
2024/02/27 09:02:37;;;;;;;;;;;;;;;14.15;67.29;99907.75;4844607;29;20303;-77
2024/02/27 09:05:29;;;;;;;;;;;;;;;14.20;67.89;99909.38;4847118;29;19920;-80
2024/02/27 09:08:21;;;;;;;;;;;;;;;14.05;66.87;99913.78;4850734;29;19920;-81
2024/02/27 09:11:13;;;;;;;;;;;;;;;13.91;67.86;99917.00;4848711;29;19920;-80
2024/02/27 09:14:05;;;;;;;;;;;;;;;13.70;68.02;99917.31;4846755;29;19924;-79
2024/02/27 09:16:57;;;;;;;;;;;;;;;13.80;67.94;99912.44;4850066;29;19916;-79
2024/02/27 09:19:49;;;;;;;;;;;;;;;13.89;68.21;99916.53;4840380;29;19916;-80
2024/02/27 09:22:41;;;;;;;;;;;;;;;13.40;68.15;99910.72;4844816;29;20418;-82
2024/02/27 09:25:33;;;;;;;;;;;;;;;13.23;69.35;99911.06;4849262;29;19916;-82
2024/02/27 09:28:22;;;;;;;;;;;;;;;13.28;69.73;99913.53;4837911;29;19920;-79
2024/02/27 09:31:14;;;;;;;;;;;;;;;13.14;69.50;99905.00;4849108;29;19920;-80
2024/02/27 09:34:06;;;;;;;;;;;;;;;13.23;69.21;99919.28;4847518;29;20398;-81
2024/02/27 09:36:58;;;;;;;;;;;;;;;13.15;70.01;99920.25;4850329;29;19916;-79
2024/02/27 09:39:55;;;;;;;;;;;;;;;13.17;70.12;99928.84;4846809;29;19939;-81
2024/02/27 09:42:47;;;;;;;;;;;;;;;13.32;69.25;99928.06;4840439;29;19917;-80
2024/02/27 09:45:39;;;;;;;;;;;;;;;13.47;69.44;99930.00;4842833;29;19920;-82
2024/02/27 09:48:33;;;;;;;;;;;;;;;13.73;68.49;99923.19;4845125;29;19916;-82
2024/02/27 09:51:26;;;;;;;;;;;;;;;13.64;68.66;99937.84;4843818;29;19921;-81
2024/02/27 09:54:18;;;;;;;;;;;;;;;13.52;68.81;99935.19;4846779;29;19921;-81
2024/02/27 09:57:10;;;;;;;;;;;;;;;13.40;68.99;99935.31;4845068;29;19916;-81
2024/02/27 10:00:02;;;;;;;;;;;;;;;13.57;68.53;99934.13;4842780;29;19917;-81
2024/02/27 10:02:59;;;;;;;;;;;;;;;13.89;67.25;99926.69;4842553;29;19924;-81
2024/02/27 10:05:51;;;;;;;;;;;;;;;13.83;67.06;99941.75;4843990;29;19920;-81
2024/02/27 10:08:46;;;;;;;;;;;;;;;13.58;68.07;99950.19;4846689;29;19920;-81
2024/02/27 10:11:38;;;;;;;;;;;;;;;13.38;69.87;99953.97;4844726;29;19924;-82
2024/02/27 10:14:36;;;;;;;;;;;;;;;13.24;70.52;99951.69;4843228;29;19924;-81
2024/02/27 10:17:28;;;;;;;;;;;;;;;13.81;69.27;99947.59;4845492;29;19917;-81
2024/02/27 10:20:20;;;;;;;;;;;;;;;13.83;68.40;99960.91;4844130;29;19916;-82
2024/02/27 10:23:12;;;;;;;;;;;;;;;13.83;68.33;99964.41;4846850;29;19920;-81
2024/02/27 10:26:13;;;;;;;;;;;;;;;13.61;68.78;99954.91;4841342;29;19920;-82
2024/02/27 10:29:05;;;;;;;;;;;;;;;13.60;69.17;99958.81;4841493;29;20302;-81
2024/02/27 10:31:57;;;;;;;;;;;;;;;13.52;69.31;99956.25;4844622;29;19924;-80
2024/02/27 10:34:49;;;;;;;;;;;;;;;13.61;69.41;99959.63;4845745;29;19916;-80
2024/02/27 10:37:41;;;;;;;;;;;;;;;13.57;69.15;99962.25;4839922;29;19920;-81
2024/02/27 10:40:31;;;;;;;;;;;;;;;13.33;69.99;99970.63;4847254;29;19920;-81
2024/02/27 10:43:23;;;;;;;;;;;;;;;13.32;70.41;99968.22;4845008;29;19916;-82
2024/02/27 10:46:12;;;;;;;;;;;;;;;13.34;70.33;99964.03;4848492;29;20391;-82
2024/02/27 10:48:59;;;;;;;;;;;;;;;13.10;71.06;99975.06;4846481;29;19920;-82
2024/02/27 10:51:52;;;;;;;;;;;;;;;13.18;71.35;99974.13;4843875;29;19924;-82
2024/02/27 10:54:41;;;;;;;;;;;;;;;13.22;71.33;99967.63;4848314;29;19916;-82
2024/02/27 10:57:34;;;;;;;;;;;;;;;13.24;70.94;99979.00;4841029;29;19916;-81
2024/02/27 11:00:26;;;;;;;;;;;;;;;13.17;71.28;99978.00;4844598;29;19916;-81
2024/02/27 11:03:17;;;;;;;;;;;;;;;12.97;72.00;99984.44;4840532;29;20406;-80
2024/02/27 11:06:07;;;;;;;;;;;;;;;13.06;72.01;99991.34;4844637;29;19924;-80
2024/02/27 11:09:01;;;;;;;;;;;;;;;12.97;71.40;99981.72;4841057;29;19916;-81
2024/02/27 11:11:54;;;;;;;;;;;;;;;13.29;71.24;99986.13;4838049;29;19924;-80
2024/02/27 11:14:59;;;;;;;;;;;;;;;13.44;70.42;99987.28;4843525;29;19924;-81
2024/02/27 11:17:51;;;;;;;;;;;;;;;13.62;70.00;99986.56;4845403;29;20399;-81
2024/02/27 11:20:44;;;;;;;;;;;;;;;13.75;69.22;99989.22;4845505;29;19940;-81
2024/02/27 11:23:36;;;;;;;;;;;;;;;14.05;68.50;99979.38;4843125;29;19916;-81
2024/02/27 11:26:28;;;;;;;;;;;;;;;13.91;67.95;99981.78;4845755;29;19920;-80
2024/02/27 11:29:16;;;;;;;;;;;;;;;13.91;68.25;99984.53;4842486;29;19917;-81
2024/02/27 11:32:07;;;;;;;;;;;;;;;13.77;68.96;99989.63;4844328;29;19958;-80
2024/02/27 11:34:56;;;;;;;;;;;;;;;13.91;68.62;99990.00;4845556;29;19920;-80
2024/02/27 11:37:48;;;;;;;;;;;;;;;13.85;68.25;99996.88;4842659;29;19917;-82
2024/02/27 11:40:54;;;;;;;;;;;;;;;13.84;68.74;99992.56;4846461;29;19916;-81
2024/02/27 11:43:48;;;;;;;;;;;;;;;13.66;69.56;99992.91;4843491;29;20503;-81
2024/02/27 11:46:40;;;;;;;;;;;;;;;13.57;70.31;99996.97;4847888;29;19916;-79
2024/02/27 11:49:43;;;;;;;;;;;;;;;13.29;71.09;99994.31;4837420;29;20371;-80
2024/02/27 11:52:35;;;;;;;;;;;;;;;13.22;71.92;99986.72;4836884;29;20302;-80
2024/02/27 11:55:27;;;;;;;;;;;;;;;13.23;72.28;99998.44;4845160;29;19920;-80
2024/02/27 11:58:17;;;;;;;;;;;;;;;13.13;72.97;99993.50;4836571;29;19920;-79
2024/02/27 12:01:07;;;;;;;;;;;;;;;13.05;73.64;99997.16;4846136;29;19925;-80
2024/02/27 12:03:59;;;;;;;;;;;;;;;13.02;73.65;99992.38;4837160;29;19916;-79
2024/02/27 12:06:54;;;;;;;;;;;;;;;13.00;73.77;100003.66;4841616;29;19920;-80
2024/02/27 12:09:44;;;;;;;;;;;;;;;13.03;73.71;100005.69;4846679;29;20314;-80
2024/02/27 12:12:34;;;;;;;;;;;;;;;13.01;74.05;100004.44;4844791;29;20387;-80
2024/02/27 12:15:26;;;;;;;;;;;;;;;12.92;74.36;100006.53;4839820;29;19917;-79
2024/02/27 12:18:18;;;;;;;;;;;;;;;13.38;74.82;100008.59;4849473;29;19920;-80
2024/02/27 12:21:10;;;;;;;;;;;;;;;13.14;74.07;100014.19;4844233;29;19939;-80
2024/02/27 12:24:18;;;;;;;;;;;;;;;13.06;74.11;100004.19;4836141;29;19925;-81
2024/02/27 12:27:10;;;;;;;;;;;;;;;12.96;74.83;100002.75;4840037;29;19920;-80
2024/02/27 12:30:02;;;;;;;;;;;;;;;12.97;75.17;100007.06;4842253;29;19920;-80
2024/02/27 12:32:51;;;;;;;;;;;;;;;12.93;75.04;100003.47;4838314;29;19925;-79
2024/02/27 12:35:43;;;;;;;;;;;;;;;12.96;75.71;99996.50;4847492;29;19916;-80
2024/02/27 12:38:36;;;;;;;;;;;;;;;12.96;75.36;100000.03;4838119;29;19920;-79
2024/02/27 12:41:29;;;;;;;;;;;;;;;13.01;75.14;99996.25;4842907;29;20387;-80
2024/02/27 12:44:21;;;;;;;;;;;;;;;13.03;75.36;99993.97;4841843;29;19921;-80
2024/02/27 12:47:14;;;;;;;;;;;;;;;13.01;75.18;99988.84;4850081;29;19920;-80
2024/02/27 12:50:03;;;;;;;;;;;;;;;12.98;75.00;99988.78;4847632;29;19916;-80
2024/02/27 12:52:55;;;;;;;;;;;;;;;12.98;75.49;99989.56;4844982;29;19924;-80
2024/02/27 12:55:47;;;;;;;;;;;;;;;13.21;74.48;99987.06;4849083;29;19917;-79
2024/02/27 12:58:44;;;;;;;;;;;;;;;13.06;74.44;99996.00;4846434;29;19921;-80
2024/02/27 13:01:39;;;;;;;;;;;;;;;13.05;74.16;99994.44;4847960;29;19920;-80
2024/02/27 13:04:30;;;;;;;;;;;;;;;13.08;74.53;99996.44;4847700;29;19917;-80
2024/02/27 13:07:22;;;;;;;;;;;;;;;13.00;75.14;99991.94;4845264;29;20387;-81
2024/02/27 13:10:15;;;;;;;;;;;;;;;13.02;74.92;99989.66;4848706;29;19924;-80
2024/02/27 13:13:12;;;;;;;;;;;;;;;13.06;74.62;99988.59;4844792;29;19920;-80
2024/02/27 13:16:04;;;;;;;;;;;;;;;13.00;74.53;99983.75;4839120;29;19927;-81
2024/02/27 13:18:54;;;;;;;;;;;;;;;12.96;74.41;99988.31;4845094;29;19917;-80
2024/02/27 13:21:46;;;;;;;;;;;;;;;12.88;75.23;99992.00;4842653;29;19920;-81
2024/02/27 13:24:39;;;;;;;;;;;;;;;13.02;74.30;99987.72;4838217;29;20182;-81
2024/02/27 13:27:31;;;;;;;;;;;;;;;12.93;74.72;99991.75;4839523;29;19920;-80
2024/02/27 13:30:22;;;;;;;;;;;;;;;12.86;75.52;99989.59;4837030;29;19916;-79
2024/02/27 13:33:15;;;;;;;;;;;;;;;12.83;75.59;99988.38;4843307;29;19920;-81
2024/02/27 13:36:05;;;;;;;;;;;;;;;12.86;75.05;99995.06;4845074;29;20379;-81
2024/02/27 13:38:57;;;;;;;;;;;;;;;12.90;74.91;99984.28;4842479;29;19916;-81
2024/02/27 13:41:49;;;;;;;;;;;;;;;12.89;74.77;99985.41;4845314;29;19916;-81
2024/02/27 13:44:41;;;;;;;;;;;;;;;12.82;74.36;99983.25;4844010;29;19920;-82
2024/02/27 13:47:33;;;;;;;;;;;;;;;12.79;74.45;99992.97;4847246;29;19917;-81
2024/02/27 13:50:25;;;;;;;;;;;;;;;12.78;74.47;99988.63;4845685;29;19920;-81
2024/02/27 13:53:18;;;;;;;;;;;;;;;12.78;75.03;99988.63;4829624;29;20387;-82
2024/02/27 13:56:07;;;;;;;;;;;;;;;12.78;74.96;99988.63;4846568;29;19920;-81
2024/02/27 13:58:59;;;;;;;;;;;;;;;12.83;75.23;99993.03;4844620;29;20106;-81
2024/02/27 14:01:51;;;;;;;;;;;;;;;12.83;74.49;99985.66;4842690;29;19920;-81
2024/02/27 14:04:43;;;;;;;;;;;;;;;12.84;74.37;99991.91;4845535;29;19917;-81
2024/02/27 14:07:35;;;;;;;;;;;;;;;12.86;74.58;99992.34;4842272;29;20631;-81
2024/02/27 14:10:27;;;;;;;;;;;;;;;12.81;74.75;99995.31;4847152;29;19920;-81
2024/02/27 14:13:19;;;;;;;;;;;;;;;12.81;74.77;99996.13;4845067;29;19921;-81
2024/02/27 14:16:11;;;;;;;;;;;;;;;12.85;75.05;99997.00;4827583;29;19924;-81
2024/02/27 14:19:09;;;;;;;;;;;;;;;12.89;75.04;99999.03;4843373;29;19916;-81
2024/02/27 14:21:58;;;;;;;;;;;;;;;12.84;75.28;100003.63;4841136;29;19916;-81
2024/02/27 14:24:50;;;;;;;;;;;;;;;12.93;74.36;99999.94;4848072;29;19916;-80
2024/02/27 14:27:49;;;;;;;;;;;;;;;12.98;74.04;100008.66;4842463;29;20241;-81
2024/02/27 14:30:41;;;;;;;;;;;;;;;12.95;73.75;100008.56;4840226;29;19916;-81
2024/02/27 14:33:30;;;;;;;;;;;;;;;12.95;74.08;100011.31;4844471;29;19920;-81
2024/02/27 14:36:22;;;;;;;;;;;;;;;12.95;74.51;100008.56;4840950;29;19924;-81
2024/02/27 14:39:14;;;;;;;;;;;;;;;12.99;75.18;100004.81;4842813;29;19917;-80
2024/02/27 14:42:03;;;;;;;;;;;;;;;13.00;74.72;100011.06;4845229;29;19916;-80
2024/02/27 14:44:55;;;;;;;;;;;;;;;13.05;74.74;100003.41;4844261;29;19924;-81
2024/02/27 14:47:48;;;;;;;;;;;;;;;13.02;74.82;100003.28;4848114;29;20329;-81
2024/02/27 14:50:40;;;;;;;;;;;;;;;13.01;75.01;100007.16;4846389;29;19943;-82
2024/02/27 14:53:30;;;;;;;;;;;;;;;13.11;74.78;100003.94;4848769;29;19949;-81